createdAt,value
2018-12-29T00:02:23.116Z,2.74
2018-12-29T00:04:55.107Z,2.79
2018-12-29T00:07:27.020Z,2.79
2018-12-29T00:09:58.917Z,2.79
2018-12-29T00:12:30.797Z,2.70
2018-12-29T00:15:02.685Z,2.69
2018-12-29T00:17:34.590Z,2.70
2018-12-29T00:20:06.551Z,2.72
2018-12-29T00:22:38.453Z,2.76
2018-12-29T00:25:10.668Z,2.79
2018-12-29T00:27:42.555Z,2.79
2018-12-29T00:30:14.463Z,2.73
2018-12-29T00:32:46.413Z,2.77
2018-12-29T00:35:20.612Z,2.79
2018-12-29T00:37:52.513Z,2.84
2018-12-29T00:40:24.404Z,2.87
2018-12-29T00:42:56.373Z,2.85
2018-12-29T00:45:28.258Z,2.87
2018-12-29T00:48:00.131Z,2.83
2018-12-29T00:50:32.012Z,2.87
2018-12-29T00:53:05.970Z,2.86
2018-12-29T00:55:37.880Z,2.89
2018-12-29T00:58:09.750Z,2.90
2018-12-29T01:00:41.920Z,2.89
2018-12-29T01:03:13.797Z,2.85
2018-12-29T01:05:45.693Z,2.82
2018-12-29T01:08:17.583Z,2.86
2018-12-29T01:10:49.473Z,2.86
2018-12-29T01:13:22.955Z,2.89
2018-12-29T01:15:54.882Z,2.91
2018-12-29T01:18:26.757Z,2.91
2018-12-29T01:20:58.630Z,2.86
2018-12-29T01:23:30.486Z,2.88
2018-12-29T01:26:02.482Z,2.88
2018-12-29T01:28:35.987Z,2.75
2018-12-29T01:31:07.873Z,2.79
2018-12-29T01:33:39.766Z,2.80
2018-12-29T01:36:11.726Z,2.82
2018-12-29T01:38:43.616Z,2.78
2018-12-29T01:41:15.476Z,2.72
2018-12-29T01:43:47.409Z,2.74
2018-12-29T01:46:19.266Z,2.69
2018-12-29T01:48:51.147Z,2.71
2018-12-29T01:51:23.036Z,2.71
2018-12-29T01:53:54.901Z,2.72
2018-12-29T01:56:26.815Z,2.69
2018-12-29T01:58:58.686Z,2.75
2018-12-29T02:01:30.555Z,2.75
2018-12-29T02:04:02.431Z,2.76
2018-12-29T02:06:34.311Z,2.78
2018-12-29T02:09:07.116Z,2.79
2018-12-29T02:11:39.037Z,2.74
2018-12-29T02:14:10.899Z,2.66
2018-12-29T02:16:42.814Z,2.52
2018-12-29T02:19:14.678Z,2.57
2018-12-29T02:21:46.562Z,2.60
2018-12-29T02:24:18.502Z,2.60
2018-12-29T02:26:50.345Z,2.67
2018-12-29T02:29:22.256Z,2.71
2018-12-29T02:31:55.394Z,2.79
2018-12-29T02:34:27.287Z,2.86
2018-12-29T02:36:59.222Z,2.91
2018-12-29T02:39:31.161Z,2.91
2018-12-29T02:42:03.039Z,2.89
2018-12-29T02:44:34.903Z,2.93
2018-12-29T02:47:06.781Z,2.98
2018-12-29T02:49:38.662Z,3.03
2018-12-29T02:52:10.530Z,3.06
2018-12-29T02:54:42.416Z,3.01
2018-12-29T02:57:14.308Z,2.97
2018-12-29T02:59:46.192Z,2.93
2018-12-29T03:02:18.088Z,2.95
2018-12-29T03:04:49.936Z,2.97
2018-12-29T03:07:21.881Z,3.01
2018-12-29T03:09:53.747Z,3.03
2018-12-29T03:12:25.629Z,3.05
2018-12-29T03:14:57.515Z,3.07
2018-12-29T03:17:29.406Z,3.07
2018-12-29T03:20:04.707Z,3.09
2018-12-29T03:22:36.587Z,3.14
2018-12-29T03:25:08.466Z,3.12
2018-12-29T03:27:41.953Z,3.14
2018-12-29T03:30:13.818Z,3.18
2018-12-29T03:32:45.691Z,3.19
2018-12-29T03:35:20.545Z,3.19
2018-12-29T03:37:52.422Z,3.18
2018-12-29T03:40:24.305Z,3.18
2018-12-29T03:42:57.459Z,3.24
2018-12-29T03:45:31.638Z,3.24
2018-12-29T03:48:03.518Z,3.28
2018-12-29T03:50:35.691Z,3.25
2018-12-29T03:53:07.580Z,3.24
2018-12-29T03:55:39.537Z,3.26
2018-12-29T03:58:12.586Z,3.24
2018-12-29T04:00:44.525Z,3.24
2018-12-29T04:03:16.412Z,3.26
2018-12-29T04:05:48.269Z,3.30
2018-12-29T04:08:20.172Z,3.29
2018-12-29T04:10:52.016Z,3.31
2018-12-29T04:13:23.955Z,3.31
2018-12-29T04:15:58.308Z,3.31
2018-12-29T04:18:29.403Z,3.33
2018-12-29T04:21:04.437Z,3.33
2018-12-29T04:23:36.342Z,3.33
2018-12-29T04:26:08.214Z,3.34
2018-12-29T04:28:40.101Z,3.29
2018-12-29T04:31:11.961Z,3.28
2018-12-29T04:33:43.931Z,3.30
2018-12-29T04:36:15.808Z,3.32
2018-12-29T04:38:47.934Z,3.29
2018-12-29T04:41:19.771Z,3.28
2018-12-29T04:43:51.640Z,3.30
2018-12-29T04:46:23.504Z,3.31
2018-12-29T04:48:55.384Z,3.35
2018-12-29T04:51:27.236Z,3.37
2018-12-29T04:53:59.367Z,3.39
2018-12-29T04:56:31.641Z,3.38
2018-12-29T04:59:03.491Z,3.40
2018-12-29T05:01:35.696Z,3.37
2018-12-29T05:04:07.560Z,3.39
2018-12-29T05:06:39.423Z,3.39
2018-12-29T05:09:11.316Z,3.36
2018-12-29T05:11:43.177Z,3.38
2018-12-29T05:14:16.426Z,3.39
2018-12-29T05:16:48.371Z,3.42
2018-12-29T05:19:20.244Z,3.41
2018-12-29T05:21:52.096Z,3.42
2018-12-29T05:24:24.007Z,3.43
2018-12-29T05:26:55.881Z,3.47
2018-12-29T05:29:27.757Z,3.39
2018-12-29T05:31:59.622Z,3.42
2018-12-29T05:34:31.514Z,3.43
2018-12-29T05:37:03.397Z,3.39
2018-12-29T05:39:36.618Z,3.37
2018-12-29T05:42:08.503Z,3.39
2018-12-29T05:44:40.392Z,3.37
2018-12-29T05:47:12.264Z,3.37
2018-12-29T05:49:44.129Z,3.39
2018-12-29T05:52:16.027Z,3.37
2018-12-29T05:54:47.888Z,3.37
2018-12-29T05:57:19.766Z,3.42
2018-12-29T06:00:01.071Z,3.43
2018-12-29T06:02:32.935Z,3.41
2018-12-29T06:05:04.941Z,3.39
2018-12-29T06:07:37.150Z,3.36
2018-12-29T06:10:09.032Z,3.40
2018-12-29T06:12:40.929Z,3.39
2018-12-29T06:15:12.778Z,3.41
2018-12-29T06:17:44.706Z,3.43
2018-12-29T06:20:17.978Z,3.45
2018-12-29T06:22:49.854Z,3.45
2018-12-29T06:25:21.716Z,3.46
2018-12-29T06:27:53.667Z,3.45
2018-12-29T06:30:25.541Z,3.44
2018-12-29T06:33:03.479Z,3.47
2018-12-29T06:35:36.465Z,3.48
2018-12-29T06:38:08.317Z,3.36
2018-12-29T06:40:40.180Z,3.33
2018-12-29T06:43:17.933Z,3.29
2018-12-29T06:45:49.825Z,3.28
2018-12-29T06:48:24.053Z,3.19
2018-12-29T06:51:07.933Z,3.14
2018-12-29T06:53:42.374Z,3.06
2018-12-29T06:56:17.362Z,3.09
2018-12-29T06:58:49.245Z,3.14
2018-12-29T07:01:24.197Z,3.06
2018-12-29T07:04:05.446Z,3.09
2018-12-29T07:06:40.021Z,3.09
2018-12-29T07:09:13.702Z,3.13
2018-12-29T07:11:45.625Z,3.12
2018-12-29T07:14:19.353Z,3.15
2018-12-29T07:16:51.165Z,3.16
2018-12-29T07:19:30.103Z,3.11
2018-12-29T07:22:05.009Z,3.11
2018-12-29T07:24:36.897Z,3.16
2018-12-29T07:27:08.746Z,3.16
2018-12-29T07:29:40.995Z,3.12
2018-12-29T07:32:14.493Z,3.15
2018-12-29T07:34:50.117Z,3.13
2018-12-29T07:37:25.416Z,3.09
2018-12-29T07:39:57.581Z,2.97
2018-12-29T07:42:34.097Z,2.88
2018-12-29T07:45:09.041Z,2.79
2018-12-29T07:47:45.485Z,2.72
2018-12-29T07:50:18.767Z,2.75
2018-12-29T07:52:50.676Z,2.83
2018-12-29T07:55:31.693Z,2.79
2018-12-29T07:58:03.576Z,2.78
2018-12-29T08:00:35.684Z,2.83
2018-12-29T08:03:10.049Z,2.86
2018-12-29T08:05:42.037Z,2.95
2018-12-29T08:08:19.735Z,3.02
2018-12-29T08:10:57.440Z,3.08
2018-12-29T08:13:29.329Z,3.16
2018-12-29T08:16:01.503Z,3.24
2018-12-29T08:18:33.404Z,3.27
2018-12-29T08:21:07.485Z,3.30
2018-12-29T08:23:39.373Z,3.30
2018-12-29T08:26:17.030Z,3.31
2018-12-29T08:28:51.934Z,3.31
2018-12-29T08:31:26.286Z,3.35
2018-12-29T08:33:59.673Z,3.42
2018-12-29T08:36:37.390Z,3.46
2018-12-29T08:39:12.458Z,3.53
2018-12-29T08:41:44.346Z,3.56
2018-12-29T08:44:17.290Z,3.62
2018-12-29T08:46:53.000Z,3.67
2018-12-29T08:49:26.368Z,3.65
2018-12-29T08:52:01.321Z,3.69
2018-12-29T08:54:34.378Z,3.70
2018-12-29T08:57:08.061Z,3.75
2018-12-29T08:59:44.601Z,3.73
2018-12-29T09:02:16.497Z,3.63
2018-12-29T09:04:48.393Z,3.65
2018-12-29T09:07:20.294Z,3.63
2018-12-29T09:09:52.228Z,3.69
2018-12-29T09:12:28.437Z,3.72
2018-12-29T09:15:03.144Z,3.75
2018-12-29T09:17:35.004Z,3.75
2018-12-29T09:20:07.312Z,3.73
2018-12-29T09:22:41.939Z,3.71
2018-12-29T09:25:17.163Z,3.76
2018-12-29T09:27:50.930Z,3.75
2018-12-29T09:30:23.859Z,3.79
2018-12-29T09:32:55.699Z,3.79
2018-12-29T09:35:34.477Z,3.81
2018-12-29T09:38:06.369Z,3.85
2018-12-29T09:40:38.235Z,3.86
2018-12-29T09:43:17.884Z,3.90
2018-12-29T09:45:49.760Z,3.88
2018-12-29T09:48:28.846Z,3.91
2018-12-29T09:51:03.625Z,3.83
2018-12-29T09:53:35.526Z,3.88
2018-12-29T09:56:07.417Z,3.90
2018-12-29T09:58:39.399Z,3.92
2018-12-29T10:01:13.621Z,3.94
2018-12-29T10:03:45.498Z,4.00
2018-12-29T10:06:17.403Z,4.02
2018-12-29T10:08:50.831Z,4.02
2018-12-29T10:11:22.695Z,4.02
2018-12-29T10:13:54.587Z,4.03
2018-12-29T10:16:28.250Z,4.05
2018-12-29T10:19:00.147Z,4.03
2018-12-29T10:21:32.005Z,3.98
2018-12-29T10:24:03.900Z,4.02
2018-12-29T10:26:35.757Z,4.02
2018-12-29T10:29:07.701Z,3.97
2018-12-29T10:31:39.563Z,4.01
2018-12-29T10:34:11.463Z,4.07
2018-12-29T10:36:43.310Z,4.05
2018-12-29T10:39:15.462Z,4.09
2018-12-29T10:41:47.340Z,4.11
2018-12-29T10:44:19.442Z,4.19
2018-12-29T10:46:51.330Z,4.22
2018-12-29T10:49:25.580Z,4.19
2018-12-29T10:52:00.483Z,4.27
2018-12-29T10:54:32.342Z,4.35
2018-12-29T10:57:04.204Z,4.46
2018-12-29T10:59:36.089Z,4.52
2018-12-29T11:02:08.996Z,4.57
2018-12-29T11:04:40.917Z,4.58
2018-12-29T11:07:12.800Z,4.64
2018-12-29T11:09:47.701Z,4.65
2018-12-29T11:12:19.595Z,4.59
2018-12-29T11:14:51.455Z,4.44
2018-12-29T11:17:23.335Z,4.42
2018-12-29T11:19:55.486Z,4.41
2018-12-29T11:22:27.389Z,4.39
2018-12-29T11:24:59.248Z,4.42
2018-12-29T11:27:31.155Z,4.46
2018-12-29T11:30:03.089Z,4.50
2018-12-29T11:32:41.006Z,4.57
2018-12-29T11:35:12.940Z,4.58
2018-12-29T11:37:51.014Z,4.61
2018-12-29T11:40:25.252Z,4.69
2018-12-29T11:43:00.110Z,4.72
2018-12-29T11:45:40.583Z,4.74
2018-12-29T11:48:20.032Z,4.80
2018-12-29T11:50:51.953Z,4.85
2018-12-29T11:53:24.134Z,4.91
2018-12-29T11:55:56.032Z,4.95
2018-12-29T11:58:31.591Z,4.96
2018-12-29T12:01:04.555Z,4.97
2018-12-29T12:03:38.737Z,4.94
2018-12-29T12:06:12.460Z,4.89
2018-12-29T12:08:44.368Z,4.82
2018-12-29T12:11:18.597Z,4.79
2018-12-29T12:13:50.538Z,4.79
2018-12-29T12:16:26.964Z,4.82
2018-12-29T12:18:57.430Z,4.85
2018-12-29T12:21:33.478Z,4.85
2018-12-29T12:24:05.387Z,4.71
2018-12-29T12:26:37.310Z,4.70
2018-12-29T12:29:09.189Z,4.76
2018-12-29T12:31:43.963Z,4.72
2018-12-29T12:34:15.893Z,4.75
2018-12-29T12:36:53.291Z,4.76
2018-12-29T12:39:25.176Z,4.72
2018-12-29T12:41:57.089Z,4.84
2018-12-29T12:44:32.113Z,4.92
2018-12-29T12:47:06.885Z,4.94
2018-12-29T12:49:43.600Z,4.93
2018-12-29T12:52:17.609Z,4.97
2018-12-29T12:54:51.360Z,4.98
2018-12-29T12:57:28.265Z,5.01
2018-12-29T13:00:03.287Z,4.95
2018-12-29T13:02:42.447Z,4.88
2018-12-29T13:05:16.028Z,4.91
2018-12-29T13:07:47.954Z,4.90
2018-12-29T13:10:20.053Z,4.96
2018-12-29T13:12:51.987Z,5.01
2018-12-29T13:15:23.881Z,5.04
2018-12-29T13:17:59.008Z,5.04
2018-12-29T13:20:34.249Z,5.09
2018-12-29T13:23:12.856Z,5.10
2018-12-29T13:25:47.929Z,5.08
2018-12-29T13:28:19.852Z,5.12
2018-12-29T13:30:54.778Z,5.15
2018-12-29T13:33:30.867Z,5.19
2018-12-29T13:36:02.776Z,5.19
2018-12-29T13:38:34.890Z,5.17
2018-12-29T13:41:06.788Z,5.18
2018-12-29T13:43:41.686Z,5.15
2018-12-29T13:46:15.909Z,5.11
2018-12-29T13:48:48.060Z,5.16
2018-12-29T13:51:24.068Z,5.18
2018-12-29T13:53:55.997Z,5.19
2018-12-29T13:56:30.008Z,5.21
2018-12-29T13:59:04.262Z,5.23
2018-12-29T14:01:37.784Z,5.24
2018-12-29T14:04:09.713Z,5.23
2018-12-29T14:06:41.600Z,5.24
2018-12-29T14:09:13.477Z,5.24
2018-12-29T14:11:47.295Z,5.22
2018-12-29T14:14:23.290Z,5.21
2018-12-29T14:17:01.371Z,5.20
2018-12-29T14:19:33.251Z,5.17
2018-12-29T14:22:05.128Z,5.22
2018-12-29T14:24:38.739Z,5.14
2018-12-29T14:27:10.679Z,5.16
2018-12-29T14:29:46.742Z,5.13
2018-12-29T14:32:18.646Z,5.17
2018-12-29T14:34:57.745Z,5.17
2018-12-29T14:37:32.390Z,5.16
2018-12-29T14:40:04.281Z,5.20
2018-12-29T14:42:39.563Z,5.22
2018-12-29T14:45:11.491Z,5.26
2018-12-29T14:47:49.491Z,5.23
2018-12-29T14:50:21.671Z,5.25
2018-12-29T14:52:53.884Z,5.30
2018-12-29T14:55:25.726Z,5.32
2018-12-29T14:58:00.786Z,5.33
2018-12-29T15:00:34.652Z,5.33
2018-12-29T15:03:12.816Z,5.29
2018-12-29T15:05:47.376Z,5.28
2018-12-29T15:08:22.867Z,5.31
2018-12-29T15:10:54.790Z,5.33
2018-12-29T15:13:30.359Z,5.32
2018-12-29T15:16:02.260Z,5.30
2018-12-29T15:18:34.176Z,5.27
2018-12-29T15:21:06.422Z,5.22
2018-12-29T15:23:39.425Z,5.23
2018-12-29T15:26:13.650Z,5.23
2018-12-29T15:28:49.585Z,5.23
2018-12-29T15:31:21.511Z,5.22
2018-12-29T15:33:53.403Z,5.22
2018-12-29T15:36:27.083Z,5.23
2018-12-29T15:39:00.255Z,5.19
2018-12-29T15:41:35.741Z,5.18
2018-12-29T15:44:12.804Z,5.16
2018-12-29T15:46:52.324Z,5.13
2018-12-29T15:49:25.749Z,5.11
2018-12-29T15:51:57.666Z,5.08
2018-12-29T15:54:31.050Z,5.06
2018-12-29T15:57:06.342Z,5.05
2018-12-29T15:59:38.244Z,4.98
2018-12-29T16:02:12.261Z,4.92
2018-12-29T16:04:45.715Z,4.90
2018-12-29T16:07:17.730Z,4.93
2018-12-29T16:09:51.398Z,4.93
2018-12-29T16:12:23.308Z,4.90
2018-12-29T16:14:55.190Z,4.93
2018-12-29T16:17:27.118Z,4.97
2018-12-29T16:20:01.071Z,4.91
2018-12-29T16:22:33.277Z,4.93
2018-12-29T16:25:05.231Z,4.88
2018-12-29T16:27:37.145Z,4.91
2018-12-29T16:30:12.096Z,4.85
2018-12-29T16:32:46.826Z,4.83
2018-12-29T16:35:20.490Z,4.85
2018-12-29T16:37:52.393Z,4.91
2018-12-29T16:40:24.297Z,4.92
2018-12-29T16:43:00.073Z,4.90
2018-12-29T16:45:32.280Z,4.84
2018-12-29T16:48:07.228Z,4.87
2018-12-29T16:50:44.492Z,4.87
2018-12-29T16:53:14.072Z,4.88
2018-12-29T16:55:47.609Z,4.88
2018-12-29T16:58:21.971Z,4.82
2018-12-29T17:00:54.254Z,4.84
2018-12-29T17:03:29.167Z,4.85
2018-12-29T17:06:02.439Z,4.87
2018-12-29T17:08:34.475Z,4.89
2018-12-29T17:11:06.370Z,4.93
2018-12-29T17:13:38.550Z,4.96
2018-12-29T17:16:12.736Z,4.98
2018-12-29T17:18:44.699Z,4.97
2018-12-29T17:21:17.003Z,4.98
2018-12-29T17:23:48.902Z,4.98
2018-12-29T17:26:22.888Z,4.99
2018-12-29T17:28:54.817Z,5.03
2018-12-29T17:31:27.051Z,5.02
2018-12-29T17:33:58.993Z,4.92
2018-12-29T17:36:30.926Z,4.87
2018-12-29T17:39:02.987Z,4.91
2018-12-29T17:41:36.957Z,4.92
2018-12-29T17:44:08.803Z,4.92
2018-12-29T17:46:40.719Z,4.84
2018-12-29T17:49:12.947Z,4.79
2018-12-29T17:51:44.820Z,4.82
2018-12-29T17:54:16.753Z,4.85
2018-12-29T17:56:48.668Z,4.91
2018-12-29T17:59:20.544Z,4.91
2018-12-29T18:01:52.720Z,4.95
2018-12-29T18:04:24.698Z,4.97
2018-12-29T18:06:56.566Z,4.97
2018-12-29T18:09:28.714Z,4.96
2018-12-29T18:12:00.752Z,5.00
2018-12-29T18:14:33.970Z,5.04
2018-12-29T18:17:05.850Z,5.02
2018-12-29T18:19:38.148Z,4.95
2018-12-29T18:22:10.310Z,4.81
2018-12-29T18:24:44.501Z,4.74
2018-12-29T18:27:18.154Z,4.68
2018-12-29T18:29:50.182Z,4.57
2018-12-29T18:32:22.101Z,4.56
2018-12-29T18:34:55.162Z,4.56
2018-12-29T18:37:27.378Z,4.46
2018-12-29T18:40:08.791Z,4.30
2018-12-29T18:42:43.482Z,4.32
2018-12-29T18:45:19.464Z,4.20
2018-12-29T18:47:53.004Z,4.21
2018-12-29T18:50:26.188Z,4.27
2018-12-29T18:53:01.661Z,4.37
2018-12-29T18:55:33.599Z,4.43
2018-12-29T18:58:08.742Z,4.51
2018-12-29T19:00:39.145Z,4.60
2018-12-29T19:03:12.515Z,4.65
2018-12-29T19:05:45.706Z,4.69
2018-12-29T19:08:17.613Z,4.70
2018-12-29T19:10:49.537Z,4.81
2018-12-29T19:13:21.813Z,4.80
2018-12-29T19:15:55.613Z,4.73
2018-12-29T19:18:30.263Z,4.76
2018-12-29T19:21:03.291Z,4.73
2018-12-29T19:23:35.574Z,4.74
2018-12-29T19:26:07.998Z,4.70
2018-12-29T19:28:42.999Z,4.74
2018-12-29T19:31:15.672Z,4.76
2018-12-29T19:33:47.666Z,4.78
2018-12-29T19:36:21.667Z,4.79
2018-12-29T19:38:55.585Z,4.78
2018-12-29T19:41:33.231Z,4.82
2018-12-29T19:44:09.326Z,4.84
2018-12-29T19:46:44.328Z,4.86
2018-12-29T19:49:25.663Z,4.87
2018-12-29T19:52:00.480Z,4.91
2018-12-29T19:54:40.942Z,4.93
2018-12-29T19:57:13.164Z,4.95
2018-12-29T19:59:48.572Z,5.01
2018-12-29T20:02:23.616Z,5.02
2018-12-29T20:05:00.430Z,5.01
2018-12-29T20:07:35.185Z,5.05
2018-12-29T20:10:45.213Z,5.08
2018-12-29T20:13:18.968Z,5.11
2018-12-29T20:15:50.906Z,5.06
2018-12-29T20:18:24.403Z,5.08
2018-12-29T20:20:57.929Z,5.11
2018-12-29T20:23:31.482Z,5.16
2018-12-29T20:26:03.700Z,5.18
2018-12-29T20:28:35.636Z,5.21
2018-12-29T20:31:08.626Z,5.22
2018-12-29T20:33:43.192Z,5.26
2018-12-29T20:36:16.721Z,5.25
2018-12-29T20:38:49.033Z,5.24
2018-12-29T20:41:21.292Z,5.16
2018-12-29T20:43:54.514Z,5.18
2018-12-29T20:46:29.208Z,5.09
2018-12-29T20:49:01.113Z,5.11
2018-12-29T20:51:33.305Z,5.08
2018-12-29T20:54:05.209Z,5.12
2018-12-29T20:56:37.151Z,5.15
2018-12-29T20:59:11.812Z,5.18
2018-12-29T21:01:48.610Z,5.18
2018-12-29T21:04:22.284Z,5.21
2018-12-29T21:06:54.226Z,5.25
2018-12-29T21:09:26.153Z,5.26
2018-12-29T21:11:58.190Z,5.28
2018-12-29T21:14:34.126Z,5.31
2018-12-29T21:17:06.089Z,5.33
2018-12-29T21:19:43.380Z,5.34
2018-12-29T21:22:15.622Z,5.31
2018-12-29T21:24:50.313Z,5.30
2018-12-29T21:27:26.069Z,5.31
2018-12-29T21:30:02.707Z,5.33
2018-12-29T21:32:34.332Z,5.33
2018-12-29T21:35:09.667Z,5.33
2018-12-29T21:37:41.367Z,5.34
2018-12-29T21:40:13.315Z,5.34
2018-12-29T21:42:45.506Z,5.30
2018-12-29T21:45:19.510Z,5.30
2018-12-29T21:47:51.426Z,5.34
2018-12-29T21:50:25.411Z,5.34
2018-12-29T21:53:00.057Z,5.35
2018-12-29T21:55:34.974Z,5.35
2018-12-29T21:58:08.331Z,5.31
2018-12-29T22:00:41.389Z,5.31
2018-12-29T22:03:15.688Z,5.32
2018-12-29T22:05:50.365Z,5.28
2018-12-29T22:08:28.695Z,5.26
2018-12-29T22:11:03.762Z,5.22
2018-12-29T22:13:42.597Z,5.21
2018-12-29T22:16:17.567Z,5.15
2018-12-29T22:18:52.328Z,5.15
2018-12-29T22:21:31.008Z,5.12
2018-12-29T22:24:02.956Z,4.95
2018-12-29T22:26:34.929Z,4.87
2018-12-29T22:29:08.458Z,4.88
2018-12-29T22:31:40.355Z,4.91
2018-12-29T22:34:15.911Z,4.90
2018-12-29T22:36:51.013Z,4.94
2018-12-29T22:39:24.704Z,4.95
2018-12-29T22:41:56.598Z,5.00
2018-12-29T22:44:28.529Z,5.00
2018-12-29T22:47:02.471Z,5.04
2018-12-29T22:49:37.174Z,5.03
2018-12-29T22:52:09.079Z,5.13
2018-12-29T22:54:41.047Z,5.13
2018-12-29T22:57:15.263Z,5.18
2018-12-29T22:59:51.150Z,5.19
2018-12-29T23:02:22.955Z,5.23
2018-12-29T23:04:57.723Z,5.26
2018-12-29T23:07:29.638Z,5.29
2018-12-29T23:10:04.559Z,5.32
2018-12-29T23:12:39.504Z,5.32
2018-12-29T23:15:13.366Z,5.31
2018-12-29T23:17:45.237Z,5.33
2018-12-29T23:20:17.185Z,5.34
2018-12-29T23:22:51.489Z,5.34
2018-12-29T23:25:23.366Z,5.30
2018-12-29T23:27:57.359Z,5.36
2018-12-29T23:30:30.217Z,5.37
2018-12-29T23:33:06.127Z,5.40
2018-12-29T23:35:40.386Z,5.40
2018-12-29T23:38:12.604Z,5.42
2018-12-29T23:40:46.193Z,5.44
2018-12-29T23:43:18.331Z,5.40
2018-12-29T23:45:50.209Z,5.41
2018-12-29T23:48:22.450Z,5.39
2018-12-29T23:51:05.182Z,5.40
2018-12-29T23:53:29.965Z,5.42
2018-12-29T23:56:03.216Z,5.35
2018-12-29T23:58:35.423Z,5.36
